Terminal Aerodrome Forecast
Issued by NWS

Home | Current Version | Previous Version | Graphics & Text | Print | Product List | Glossary On
Versions: 1 2 3 4 5 6 7 8 9 10 11 12 13 14 15 16 17 18 19 20
300
FTUS43 KICT 290520
TAFSLN
TAF
KSLN 290520Z 2906/3006 04007KT P6SM VCSH SCT035 OVC070
      TEMPO 2906/2909 5SM -RA BKN017
     FM290900 05013KT P6SM VCSH OVC015
     FM291700 07017KT P6SM OVC025=

USA.gov is the U.S. government's official web portal to all federal, state and local government web resources and services.